createdAt,value
2024-01-16T00:02:39.784Z,96140.16
2024-01-16T00:05:25.733Z,96142.97
2024-01-16T00:08:11.783Z,96150.97
2024-01-16T00:10:57.608Z,96143.16
2024-01-16T00:13:43.024Z,96139.56
2024-01-16T00:16:28.434Z,96139.72
2024-01-16T00:19:14.876Z,96150.34
2024-01-16T00:22:01.652Z,96144.34
2024-01-16T00:24:47.790Z,96139.31
2024-01-16T00:27:33.670Z,96144.53
2024-01-16T00:30:19.815Z,96149.75
2024-01-16T00:33:08.367Z,96150.34
2024-01-16T00:35:53.952Z,96154.56
2024-01-16T00:38:39.301Z,96144.78
2024-01-16T00:41:25.092Z,96140.34
2024-01-16T00:44:12.126Z,96142.97
2024-01-16T00:46:57.904Z,96152.59
2024-01-16T00:49:43.532Z,96150.97
2024-01-16T00:52:29.173Z,96163.00
2024-01-16T00:55:14.900Z,96159.78
2024-01-16T00:58:00.353Z,96166.59
2024-01-16T01:00:45.919Z,96164.78
2024-01-16T01:03:31.581Z,96175.81
2024-01-16T01:06:20.329Z,96168.00
2024-01-16T01:09:06.194Z,96176.63
2024-01-16T01:11:51.656Z,96175.63
2024-01-16T01:14:37.349Z,96180.84
2024-01-16T01:17:26.048Z,96186.88
2024-01-16T01:20:13.917Z,96179.84
2024-01-16T01:23:02.687Z,96189.47
2024-01-16T01:25:48.416Z,96185.25
2024-01-16T01:28:33.974Z,96181.03
2024-01-16T01:31:19.625Z,96199.47
2024-01-16T01:34:05.853Z,96192.66
2024-01-16T01:36:51.509Z,96199.47
2024-01-16T01:39:36.993Z,96210.69
2024-01-16T01:42:22.598Z,96206.47
2024-01-16T01:45:08.633Z,96211.66
2024-01-16T01:47:54.209Z,96216.72
2024-01-16T01:50:40.019Z,96216.72
2024-01-16T01:53:25.992Z,96222.09
2024-01-16T01:56:16.525Z,96214.47
2024-01-16T01:59:04.063Z,96235.31
2024-01-16T02:01:53.920Z,96222.69
2024-01-16T02:04:42.019Z,96227.06
2024-01-16T02:07:28.039Z,96239.09
2024-01-16T02:10:13.586Z,96242.69
2024-01-16T02:12:59.456Z,96240.72
2024-01-16T02:15:45.441Z,96234.69
2024-01-16T02:18:31.380Z,96243.50
2024-01-16T02:21:20.177Z,96255.91
2024-01-16T02:24:10.818Z,96255.91
2024-01-16T02:26:57.327Z,96265.50
2024-01-16T02:29:44.439Z,96274.13
2024-01-16T02:32:30.449Z,96263.09
2024-01-16T02:35:16.782Z,96257.09
2024-01-16T02:38:02.747Z,96256.47
2024-01-16T02:40:50.610Z,96262.66
2024-01-16T02:43:36.151Z,96273.88
2024-01-16T02:46:21.528Z,96269.66
2024-01-16T02:49:08.581Z,96268.84
2024-01-16T02:51:54.274Z,96275.06
2024-01-16T02:54:42.187Z,96276.06
2024-01-16T02:57:27.666Z,96274.25
2024-01-16T03:00:13.488Z,96289.88
2024-01-16T03:02:59.016Z,96270.41
2024-01-16T03:05:44.733Z,96288.63
2024-01-16T03:08:30.760Z,96294.63
2024-01-16T03:11:16.196Z,96295.63
2024-01-16T03:14:01.901Z,96303.63
2024-01-16T03:16:47.309Z,96308.22
2024-01-16T03:19:32.966Z,96309.03
2024-01-16T03:22:19.620Z,96303.00
2024-01-16T03:25:05.406Z,96314.25
2024-01-16T03:27:51.117Z,96319.00
2024-01-16T03:30:36.796Z,96314.78
2024-01-16T03:33:22.955Z,96325.19
2024-01-16T03:36:10.757Z,96326.19
2024-01-16T03:39:01.007Z,96331.38
2024-01-16T03:41:46.470Z,96326.00
2024-01-16T03:44:32.040Z,96330.22
2024-01-16T03:47:17.626Z,96327.81
2024-01-16T03:50:03.640Z,96325.19
2024-01-16T03:52:49.336Z,96320.97
2024-01-16T03:55:35.393Z,96325.56
2024-01-16T03:58:22.041Z,96328.16
2024-01-16T04:01:08.389Z,96337.78
2024-01-16T04:03:53.978Z,96327.56
2024-01-16T04:06:39.655Z,96337.31
2024-01-16T04:09:25.062Z,96344.34
2024-01-16T04:12:11.438Z,96347.75
2024-01-16T04:14:57.018Z,96349.38
2024-01-16T04:17:42.552Z,96349.56
2024-01-16T04:20:28.091Z,96352.94
2024-01-16T04:23:13.653Z,96353.78
2024-01-16T04:25:59.435Z,96350.34
2024-01-16T04:28:45.298Z,96359.78
2024-01-16T04:31:30.658Z,96364.34
2024-01-16T04:34:16.228Z,96371.38
2024-01-16T04:37:01.772Z,96371.19
2024-01-16T04:39:47.184Z,96366.94
2024-01-16T04:42:33.765Z,96369.56
2024-01-16T04:45:19.293Z,96372.16
2024-01-16T04:48:05.367Z,96374.75
2024-01-16T04:50:51.348Z,96387.78
2024-01-16T04:53:37.338Z,96378.00
2024-01-16T04:56:23.183Z,96384.00
2024-01-16T04:59:08.779Z,96385.81
2024-01-16T05:01:54.768Z,96378.00
2024-01-16T05:04:40.200Z,96374.59
2024-01-16T05:07:25.788Z,96380.59
2024-01-16T05:10:15.439Z,96384.00
2024-01-16T05:13:01.261Z,96382.22
2024-01-16T05:15:46.602Z,96384.00
2024-01-16T05:18:33.917Z,96378.00
2024-01-16T05:21:21.190Z,96375.41
2024-01-16T05:24:06.722Z,96378.19
2024-01-16T05:26:52.259Z,96375.59
2024-01-16T05:29:43.900Z,96374.75
2024-01-16T05:32:33.088Z,96375.31
2024-01-16T05:35:19.021Z,96375.88
2024-01-16T05:38:05.752Z,96375.94
2024-01-16T05:40:51.621Z,96393.53
2024-01-16T05:43:37.166Z,96391.56
2024-01-16T05:46:22.874Z,96393.19
2024-01-16T05:49:08.756Z,96397.41
2024-01-16T05:51:54.513Z,96397.22
2024-01-16T05:54:39.996Z,96404.06
2024-01-16T05:57:25.562Z,96398.84
2024-01-16T06:00:11.858Z,96403.22
2024-01-16T06:02:57.649Z,96400.81
2024-01-16T06:05:43.486Z,96406.19
2024-01-16T06:08:29.143Z,96398.38
2024-01-16T06:11:15.457Z,96405.56
2024-01-16T06:14:01.667Z,96399.56
2024-01-16T06:16:47.540Z,96407.81
2024-01-16T06:19:33.622Z,96401.34
2024-01-16T06:22:19.513Z,96413.75
2024-01-16T06:25:07.335Z,96419.94
2024-01-16T06:27:52.903Z,96418.94
2024-01-16T06:30:38.770Z,96425.59
2024-01-16T06:33:24.845Z,96425.59
2024-01-16T06:36:10.692Z,96425.59
2024-01-16T06:38:56.589Z,96434.19
2024-01-16T06:41:42.960Z,96443.63
2024-01-16T06:44:28.411Z,96452.41
2024-01-16T06:47:13.883Z,96449.47
2024-01-16T06:49:59.368Z,96454.31
2024-01-16T06:52:45.138Z,96457.72
2024-01-16T06:55:30.732Z,96463.72
2024-01-16T06:58:16.350Z,96465.34
2024-01-16T07:01:02.016Z,96472.19
2024-01-16T07:03:47.484Z,96480.97
2024-01-16T07:06:33.023Z,96480.31
2024-01-16T07:09:21.294Z,96481.75
2024-01-16T07:12:07.197Z,96486.69
2024-01-16T07:14:53.009Z,96491.25
2024-01-16T07:17:38.457Z,96498.91
2024-01-16T07:20:24.371Z,96498.91
2024-01-16T07:23:09.898Z,96510.31
2024-01-16T07:25:55.242Z,96507.72
2024-01-16T07:28:40.815Z,96512.72
2024-01-16T07:31:27.182Z,96507.53
2024-01-16T07:34:13.045Z,96510.13
2024-01-16T07:36:58.788Z,96516.13
2024-01-16T07:39:44.260Z,96516.97
2024-01-16T07:42:35.430Z,96510.75
2024-01-16T07:45:21.540Z,96515.78
2024-01-16T07:48:07.359Z,96513.81
2024-01-16T07:50:53.145Z,96508.44
2024-01-16T07:53:39.247Z,96508.63
2024-01-16T07:56:25.074Z,96511.84
2024-01-16T07:59:10.603Z,96517.69
2024-01-16T08:01:55.963Z,96521.91
2024-01-16T08:04:41.609Z,96519.94
2024-01-16T08:07:28.314Z,96510.13
2024-01-16T08:10:15.840Z,96510.78
2024-01-16T08:13:02.860Z,96513.66
2024-01-16T08:15:48.509Z,96516.72
2024-01-16T08:18:34.161Z,96511.94
2024-01-16T08:21:19.990Z,96513.38
2024-01-16T08:24:05.651Z,96513.66
2024-01-16T08:26:51.411Z,96520.28
2024-01-16T08:29:36.991Z,96517.97
2024-01-16T08:32:22.508Z,96514.03
2024-01-16T08:35:08.313Z,96515.47
2024-01-16T08:37:53.649Z,96522.09
2024-01-16T08:40:39.105Z,96528.94
2024-01-16T08:43:24.740Z,96542.94
2024-01-16T08:46:10.187Z,96539.72
2024-01-16T08:48:56.000Z,96537.28
2024-01-16T08:51:42.405Z,96543.66
2024-01-16T08:54:28.323Z,96547.97
2024-01-16T08:57:18.197Z,96546.78
2024-01-16T09:00:08.026Z,96540.00
2024-01-16T09:02:53.932Z,96539.81
2024-01-16T09:05:40.643Z,96536.56
2024-01-16T09:08:27.756Z,96537.19
2024-01-16T09:11:13.443Z,96539.63
2024-01-16T09:14:00.589Z,96544.03
2024-01-16T09:16:46.929Z,96541.59
2024-01-16T09:19:32.624Z,96540.44
2024-01-16T09:22:18.312Z,96540.72
2024-01-16T09:25:04.510Z,96529.38
2024-01-16T09:27:50.396Z,96527.88
2024-01-16T09:30:36.658Z,96526.50
2024-01-16T09:33:22.720Z,96526.22
2024-01-16T09:36:08.081Z,96519.94
2024-01-16T09:38:53.618Z,96522.59
2024-01-16T09:41:39.542Z,96522.25
2024-01-16T09:44:24.993Z,96519.00
2024-01-16T09:47:12.584Z,96512.56
2024-01-16T09:49:58.588Z,96506.06
2024-01-16T09:52:46.716Z,96503.47
2024-01-16T09:55:32.308Z,96501.84
2024-01-16T09:58:24.834Z,96502.03
2024-01-16T10:01:13.197Z,96501.31
2024-01-16T10:03:59.730Z,96502.38
2024-01-16T10:06:50.073Z,96507.41
2024-01-16T10:09:35.976Z,96497.59
2024-01-16T10:12:21.476Z,96499.84
2024-01-16T10:15:11.079Z,96503.50
2024-01-16T10:17:57.092Z,96496.31
2024-01-16T10:20:42.639Z,96501.97
2024-01-16T10:23:34.094Z,96496.56
2024-01-16T10:26:22.248Z,96501.59
2024-01-16T10:29:08.302Z,96503.47
2024-01-16T10:31:54.432Z,96505.53
2024-01-16T10:34:40.333Z,96518.00
2024-01-16T10:37:26.282Z,96520.31
2024-01-16T10:40:15.885Z,96516.78
2024-01-16T10:43:02.198Z,96509.81
2024-01-16T10:45:47.800Z,96519.50
2024-01-16T10:48:33.256Z,96520.13
2024-01-16T10:51:19.023Z,96523.53
2024-01-16T10:54:07.109Z,96509.88
2024-01-16T10:56:53.111Z,96518.69
2024-01-16T10:59:57.133Z,96514.47
2024-01-16T11:02:50.277Z,96524.34
2024-01-16T11:05:38.644Z,96513.72
2024-01-16T11:08:30.524Z,96517.22
2024-01-16T11:11:17.665Z,96518.44
2024-01-16T11:14:07.557Z,96523.66
2024-01-16T11:16:54.657Z,96520.41
2024-01-16T11:19:49.680Z,96515.34
2024-01-16T11:22:46.969Z,96501.59
2024-01-16T11:25:34.155Z,96502.44
2024-01-16T11:28:21.021Z,96514.66
2024-01-16T11:31:35.521Z,96508.75
2024-01-16T11:34:43.593Z,96507.53
2024-01-16T11:37:32.792Z,96505.91
2024-01-16T11:40:18.426Z,96500.44
2024-01-16T11:43:35.172Z,96494.16
2024-01-16T11:46:20.484Z,96486.53
2024-01-16T11:49:06.141Z,96502.91
2024-01-16T11:51:51.549Z,96500.66
2024-01-16T11:54:37.137Z,96504.28
2024-01-16T11:57:48.510Z,96500.06
2024-01-16T12:00:36.761Z,96508.44
2024-01-16T12:03:31.670Z,96498.94
2024-01-16T12:06:20.962Z,96497.19
2024-01-16T12:09:14.188Z,96492.97
2024-01-16T12:12:04.168Z,96489.78
2024-01-16T12:14:56.234Z,96496.03
2024-01-16T12:18:02.152Z,96488.81
2024-01-16T12:20:48.455Z,96489.25
2024-01-16T12:23:35.247Z,96490.88
2024-01-16T12:26:24.810Z,96482.06
2024-01-16T12:29:11.086Z,96490.31
2024-01-16T12:32:12.940Z,96481.94
2024-01-16T12:34:59.141Z,96482.53
2024-01-16T12:37:44.604Z,96482.53
2024-01-16T12:40:30.857Z,96489.75
2024-01-16T12:43:20.036Z,96480.31
2024-01-16T12:46:07.708Z,96485.09
2024-01-16T12:49:00.642Z,96476.84
2024-01-16T12:51:51.772Z,96480.44
2024-01-16T12:54:37.181Z,96467.16
2024-01-16T12:57:22.780Z,96466.91
2024-01-16T13:00:25.640Z,96469.22
2024-01-16T13:03:20.156Z,96458.63
2024-01-16T13:06:05.868Z,96449.81
2024-01-16T13:08:51.916Z,96450.63
2024-01-16T13:11:47.723Z,96447.38
2024-01-16T13:14:33.286Z,96446.34
2024-01-16T13:17:21.335Z,96441.50
2024-01-16T13:20:11.277Z,96445.63
2024-01-16T13:22:56.590Z,96437.56
2024-01-16T13:25:49.765Z,96440.38
2024-01-16T13:28:35.179Z,96437.13
2024-01-16T13:31:20.729Z,96436.34
2024-01-16T13:34:06.364Z,96443.91
2024-01-16T13:37:09.190Z,96434.03
2024-01-16T13:40:04.304Z,96427.28
2024-01-16T13:42:50.069Z,96438.84
2024-01-16T13:45:39.585Z,96437.69
2024-01-16T13:48:26.126Z,96427.69
2024-01-16T13:51:11.750Z,96430.22
2024-01-16T13:53:58.464Z,96430.22
2024-01-16T13:56:58.721Z,96438.06
2024-01-16T13:59:52.294Z,96429.16
2024-01-16T14:02:39.872Z,96435.56
2024-01-16T14:05:27.222Z,96435.31
2024-01-16T14:08:15.496Z,96433.31
2024-01-16T14:11:01.342Z,96436.09
2024-01-16T14:13:46.777Z,96433.25
2024-01-16T14:16:42.157Z,96432.00
2024-01-16T14:19:37.499Z,96424.00
2024-01-16T14:22:23.192Z,96418.78
2024-01-16T14:25:12.174Z,96430.75
2024-01-16T14:28:04.751Z,96428.56
2024-01-16T14:30:52.106Z,96427.97
2024-01-16T14:33:37.997Z,96423.75
2024-01-16T14:36:23.888Z,96422.13
2024-01-16T14:39:19.254Z,96418.88
2024-01-16T14:42:05.881Z,96424.09
2024-01-16T14:44:51.730Z,96428.16
2024-01-16T14:47:37.299Z,96431.75
2024-01-16T14:50:23.487Z,96427.97
2024-01-16T14:53:09.529Z,96422.38
2024-01-16T14:55:55.328Z,96430.19
2024-01-16T14:58:40.882Z,96429.19
2024-01-16T15:01:26.502Z,96428.56
2024-01-16T15:04:13.194Z,96427.78
2024-01-16T15:06:59.803Z,96420.34
2024-01-16T15:09:45.446Z,96423.47
2024-01-16T15:12:31.776Z,96419.44
2024-01-16T15:15:17.762Z,96421.16
2024-01-16T15:18:03.725Z,96422.06
2024-01-16T15:20:49.279Z,96412.00
2024-01-16T15:23:38.251Z,96419.00
2024-01-16T15:26:23.811Z,96422.78
2024-01-16T15:29:11.350Z,96427.09
2024-01-16T15:31:57.499Z,96438.06
2024-01-16T15:34:43.245Z,96430.78
2024-01-16T15:37:29.432Z,96432.50
2024-01-16T15:40:17.903Z,96429.81
2024-01-16T15:43:05.138Z,96442.72
2024-01-16T15:45:51.966Z,96432.22
2024-01-16T15:48:38.964Z,96432.94
2024-01-16T15:51:24.776Z,96427.16
2024-01-16T15:54:12.529Z,96430.84
2024-01-16T15:56:59.177Z,96429.09
2024-01-16T15:59:45.167Z,96435.53
2024-01-16T16:02:30.925Z,96434.47
2024-01-16T16:05:16.633Z,96442.59
2024-01-16T16:08:02.478Z,96436.13
2024-01-16T16:10:48.704Z,96441.19
2024-01-16T16:13:34.253Z,96444.34
2024-01-16T16:16:19.883Z,96444.03
2024-01-16T16:19:05.939Z,96440.53
2024-01-16T16:21:52.774Z,96441.19
2024-01-16T16:24:38.948Z,96435.72
2024-01-16T16:27:26.387Z,96432.84
2024-01-16T16:30:12.327Z,96440.16
2024-01-16T16:32:58.037Z,96440.84
2024-01-16T16:35:45.393Z,96449.16
2024-01-16T16:38:31.076Z,96446.25
2024-01-16T16:41:17.379Z,96459.63
2024-01-16T16:44:03.101Z,96459.16
2024-01-16T16:46:48.433Z,96443.44
2024-01-16T16:49:34.109Z,96437.63
2024-01-16T16:52:19.492Z,96452.53
2024-01-16T16:55:05.617Z,96452.88
2024-01-16T16:57:51.403Z,96452.88
2024-01-16T17:00:38.039Z,96445.44
2024-01-16T17:03:24.576Z,96448.03
2024-01-16T17:06:10.890Z,96440.75
2024-01-16T17:08:56.878Z,96455.50
2024-01-16T17:11:42.757Z,96445.13
2024-01-16T17:14:28.362Z,96447.56
2024-01-16T17:17:13.798Z,96446.56
2024-01-16T17:19:59.258Z,96437.97
2024-01-16T17:22:44.634Z,96442.19
2024-01-16T17:25:30.465Z,96453.41
2024-01-16T17:28:16.604Z,96456.78
2024-01-16T17:31:03.194Z,96446.75
2024-01-16T17:33:48.684Z,96441.56
2024-01-16T17:36:34.557Z,96448.06
2024-01-16T17:39:22.448Z,96451.00
2024-01-16T17:42:08.190Z,96450.84
2024-01-16T17:44:54.012Z,96460.75
2024-01-16T17:47:39.855Z,96460.25
2024-01-16T17:50:25.681Z,96469.53
2024-01-16T17:53:12.137Z,96477.16
2024-01-16T17:55:57.556Z,96477.50
2024-01-16T17:58:44.281Z,96476.69
2024-01-16T18:01:30.484Z,96466.31
2024-01-16T18:04:16.381Z,96471.34
2024-01-16T18:07:02.913Z,96462.56
2024-01-16T18:09:48.719Z,96460.81
2024-01-16T18:12:34.484Z,96464.03
2024-01-16T18:15:20.134Z,96471.81
2024-01-16T18:18:08.617Z,96471.19
2024-01-16T18:20:55.297Z,96474.75
2024-01-16T18:23:42.059Z,96481.88
2024-01-16T18:26:30.885Z,96488.69
2024-01-16T18:29:21.960Z,96488.69
2024-01-16T18:32:08.337Z,96487.06
2024-01-16T18:34:53.833Z,96490.31
2024-01-16T18:37:40.791Z,96489.50
2024-01-16T18:40:27.280Z,96483.31
2024-01-16T18:43:12.896Z,96482.53
2024-01-16T18:45:59.011Z,96474.75
2024-01-16T18:48:45.277Z,96481.72
2024-01-16T18:51:31.230Z,96468.28
2024-01-16T18:54:18.835Z,96461.47
2024-01-16T18:57:04.703Z,96449.63
2024-01-16T18:59:50.163Z,96458.38
2024-01-16T19:02:35.900Z,96457.25
2024-01-16T19:05:23.387Z,96458.25
2024-01-16T19:08:09.934Z,96460.19
2024-01-16T19:10:56.848Z,96450.13
2024-01-16T19:13:44.180Z,96454.69
2024-01-16T19:16:30.221Z,96455.00
2024-01-16T19:19:16.199Z,96446.25
2024-01-16T19:22:01.997Z,96438.19
2024-01-16T19:24:48.092Z,96436.25
2024-01-16T19:27:33.882Z,96440.44
2024-01-16T19:30:22.404Z,96432.38
2024-01-16T19:33:09.667Z,96436.22
2024-01-16T19:36:00.712Z,96433.50
2024-01-16T19:38:46.522Z,96442.09
2024-01-16T19:41:32.977Z,96429.78
2024-01-16T19:44:18.880Z,96428.31
2024-01-16T19:47:05.564Z,96435.75
2024-01-16T19:49:51.069Z,96426.16
2024-01-16T19:52:37.293Z,96418.25
2024-01-16T19:55:25.126Z,96407.69
2024-01-16T19:58:13.693Z,96413.38
2024-01-16T20:00:59.441Z,96416.72
2024-01-16T20:03:45.607Z,96412.34
2024-01-16T20:06:31.843Z,96404.56
2024-01-16T20:09:19.940Z,96401.31
2024-01-16T20:12:06.131Z,96404.19
2024-01-16T20:14:51.397Z,96408.50
2024-01-16T20:17:37.524Z,96407.53
2024-01-16T20:20:22.842Z,96399.72
2024-01-16T20:23:09.680Z,96404.84
2024-01-16T20:25:55.216Z,96402.22
2024-01-16T20:28:40.913Z,96396.03
2024-01-16T20:31:26.884Z,96408.41
2024-01-16T20:34:13.142Z,96410.94
2024-01-16T20:36:59.371Z,96413.34
2024-01-16T20:39:45.490Z,96408.16
2024-01-16T20:42:31.612Z,96404.31
2024-01-16T20:45:17.379Z,96402.50
2024-01-16T20:48:03.200Z,96392.59
2024-01-16T20:50:48.509Z,96386.94
2024-01-16T20:53:34.226Z,96377.88
2024-01-16T20:56:20.144Z,96382.53
2024-01-16T20:59:05.638Z,96388.28
2024-01-16T21:01:52.846Z,96382.84
2024-01-16T21:04:38.247Z,96390.22
2024-01-16T21:07:25.422Z,96393.09
2024-01-16T21:10:11.091Z,96394.63
2024-01-16T21:12:56.564Z,96392.47
2024-01-16T21:15:42.786Z,96390.22
2024-01-16T21:18:32.524Z,96388.75
2024-01-16T21:21:18.425Z,96379.66
2024-01-16T21:24:05.638Z,96373.47
2024-01-16T21:26:51.117Z,96364.69
2024-01-16T21:29:36.478Z,96366.75
2024-01-16T21:32:22.928Z,96363.66
2024-01-16T21:35:11.841Z,96359.34
2024-01-16T21:37:57.497Z,96363.19
2024-01-16T21:40:43.043Z,96363.78
2024-01-16T21:43:28.347Z,96352.09
2024-01-16T21:46:14.039Z,96351.47
2024-01-16T21:49:00.479Z,96346.47
2024-01-16T21:51:46.435Z,96344.63
2024-01-16T21:54:33.671Z,96338.16
2024-01-16T21:57:19.238Z,96344.53
2024-01-16T22:00:05.985Z,96345.34
2024-01-16T22:02:58.084Z,96336.00
2024-01-16T22:05:44.053Z,96337.13
2024-01-16T22:08:30.255Z,96339.44
2024-01-16T22:11:15.699Z,96337.03
2024-01-16T22:14:01.994Z,96338.81
2024-01-16T22:16:48.674Z,96332.03
2024-01-16T22:19:34.236Z,96338.91
2024-01-16T22:22:19.803Z,96335.84
2024-01-16T22:25:06.316Z,96327.72
2024-01-16T22:27:52.725Z,96316.88
2024-01-16T22:30:38.570Z,96314.31
2024-01-16T22:33:24.836Z,96316.09
2024-01-16T22:36:11.846Z,96307.16
2024-01-16T22:38:57.491Z,96311.91
2024-01-16T22:41:45.127Z,96300.69
2024-01-16T22:44:31.026Z,96290.81
2024-01-16T22:47:16.717Z,96288.81
2024-01-16T22:50:05.550Z,96280.41
2024-01-16T22:52:54.247Z,96275.56
2024-01-16T22:55:39.633Z,96274.72
2024-01-16T22:58:25.107Z,96268.25
2024-01-16T23:01:10.848Z,96268.00
2024-01-16T23:03:58.747Z,96264.78
2024-01-16T23:06:44.717Z,96254.50
2024-01-16T23:09:30.926Z,96250.00
2024-01-16T23:12:16.428Z,96244.84
2024-01-16T23:15:02.232Z,96230.41
2024-01-16T23:17:48.752Z,96224.41
2024-01-16T23:20:34.545Z,96227.81
2024-01-16T23:23:21.674Z,96213.34
2024-01-16T23:26:07.105Z,96219.56
2024-01-16T23:28:52.469Z,96218.88
2024-01-16T23:31:38.282Z,96206.19
2024-01-16T23:34:24.063Z,96209.84
2024-01-16T23:37:09.699Z,96204.84
2024-01-16T23:39:55.491Z,96204.97
2024-01-16T23:42:42.547Z,96203.47
2024-01-16T23:45:33.271Z,96194.28
2024-01-16T23:48:19.551Z,96193.63
2024-01-16T23:51:05.639Z,96183.47
2024-01-16T23:53:51.578Z,96175.75
2024-01-16T23:56:37.120Z,96170.38
2024-01-16T23:59:22.592Z,96175.00
